Time;durP1;ratioP1;P1;durP2;ratioP2;P2;SDS_P1;SDS_P2;PMS_P1;PMS_P2;Temp;Humidity;BMP_temperature;BMP_pressure;BME280_temperature;BME280_humidity;BME280_pressure;Samples;Min_cycle;Max_cycle;Signal;HPM_P1;HPM_P2
2022/12/06 00:00:56;;;;;;;6.07;4.90;;;7.90;1.00;;;;;;4994092;28;20450;-56
2022/12/06 00:03:21;;;;;;;9.97;5.40;;;7.90;1.00;;;;;;5000252;28;20447;-54
2022/12/06 00:05:47;;;;;;;6.87;5.13;;;8.00;1.00;;;;;;4998121;28;20430;-55
2022/12/06 00:08:13;;;;;;;5.57;4.77;;;7.90;1.00;;;;;;4996628;28;20182;-52
2022/12/06 00:10:38;;;;;;;6.13;5.30;;;8.00;1.00;;;;;;5002339;28;20318;-54
2022/12/06 00:13:04;;;;;;;6.10;4.90;;;8.00;1.00;;;;;;5002962;28;20190;-54
2022/12/06 00:15:33;;;;;;;5.80;5.20;;;7.90;1.00;;;;;;4992477;28;20272;-55
2022/12/06 00:17:59;;;;;;;4.70;4.17;;;7.80;1.00;;;;;;4992019;28;20513;-55
2022/12/06 00:20:24;;;;;;;5.17;4.47;;;7.90;1.00;;;;;;4994956;28;20449;-52
2022/12/06 00:22:50;;;;;;;5.80;5.00;;;8.00;1.00;;;;;;4990716;28;20211;-52
2022/12/06 00:25:15;;;;;;;6.13;4.90;;;8.00;1.00;;;;;;4989096;28;20193;-54
2022/12/06 00:27:41;;;;;;;6.23;4.63;;;8.00;1.00;;;;;;4986940;28;20187;-52
2022/12/06 00:30:07;;;;;;;5.67;4.80;;;8.00;1.00;;;;;;4996368;28;20280;-53
2022/12/06 00:32:33;;;;;;;5.63;5.13;;;8.00;1.00;;;;;;4985901;28;20186;-54
2022/12/06 00:34:58;;;;;;;6.80;4.93;;;7.90;1.00;;;;;;4983097;28;20939;-53
2022/12/06 00:37:24;;;;;;;6.17;4.97;;;7.90;1.00;;;;;;4992174;28;20188;-53
2022/12/06 00:39:50;;;;;;;4.57;4.13;;;7.90;1.00;;;;;;5000456;28;20271;-53
2022/12/06 00:42:15;;;;;;;8.10;4.67;;;7.90;1.00;;;;;;5001720;28;20232;-52
2022/12/06 00:44:41;;;;;;;4.90;4.33;;;7.90;1.00;;;;;;5003339;28;20204;-53
2022/12/06 00:47:06;;;;;;;6.33;5.27;;;8.00;1.00;;;;;;4996489;28;20280;-54
2022/12/06 00:49:32;;;;;;;4.47;4.07;;;8.00;1.00;;;;;;4998288;28;20201;-52
2022/12/06 00:51:57;;;;;;;8.23;4.43;;;8.00;1.00;;;;;;4999966;28;20193;-54
2022/12/06 00:54:23;;;;;;;4.27;3.97;;;8.00;1.00;;;;;;4998228;28;20540;-52
2022/12/06 00:56:48;;;;;;;5.70;5.10;;;8.10;1.00;;;;;;4999080;28;20205;-52
2022/12/06 00:59:15;;;;;;;4.93;4.40;;;8.00;1.00;;;;;;5009259;28;20216;-56
2022/12/06 01:01:41;;;;;;;5.73;5.13;;;7.90;1.00;;;;;;5001706;28;20221;-54
2022/12/06 01:04:06;;;;;;;7.27;4.77;;;7.90;1.00;;;;;;5003816;28;20845;-53
2022/12/06 01:06:34;;;;;;;5.20;4.40;;;7.80;1.00;;;;;;4994760;28;20184;-54
2022/12/06 01:09:04;;;;;;;5.20;4.70;;;7.80;1.00;;;;;;5001276;28;20553;-54
2022/12/06 01:11:29;;;;;;;5.20;4.63;;;7.80;1.00;;;;;;5003120;28;20794;-54
2022/12/06 01:13:57;;;;;;;4.90;4.37;;;7.70;1.00;;;;;;5001023;28;20456;-53
2022/12/06 01:16:26;;;;;;;4.83;4.10;;;7.80;1.00;;;;;;4992909;28;20214;-53
2022/12/06 01:18:54;;;;;;;4.80;4.30;;;7.80;1.00;;;;;;5004058;28;20498;-53
2022/12/06 01:21:23;;;;;;;5.13;4.50;;;7.80;1.00;;;;;;5000959;28;20794;-55
2022/12/06 01:23:48;;;;;;;7.73;5.30;;;7.80;1.00;;;;;;4995787;28;20460;-51
2022/12/06 01:26:17;;;;;;;6.00;5.20;;;7.80;1.00;;;;;;4997859;28;20452;-54
2022/12/06 01:28:43;;;;;;;5.53;5.03;;;7.70;1.00;;;;;;4997591;28;20250;-52
2022/12/06 01:31:09;;;;;;;4.93;4.47;;;7.70;1.00;;;;;;4997434;28;20473;-52
2022/12/06 01:33:35;;;;;;;5.83;4.53;;;7.70;1.00;;;;;;4993498;28;20943;-53
2022/12/06 01:36:01;;;;;;;5.63;4.43;;;7.70;1.00;;;;;;4994926;28;20427;-54
2022/12/06 01:38:26;;;;;;;6.07;4.63;;;7.70;1.00;;;;;;5001583;28;20185;-52
2022/12/06 01:40:52;;;;;;;5.73;5.03;;;7.60;1.00;;;;;;4995866;28;20215;-54
2022/12/06 01:43:38;;;;;;;5.93;5.03;;;7.60;1.00;;;;;;4993540;28;20280;-54
2022/12/06 01:46:16;;;;;;;6.40;5.40;;;7.50;1.00;;;;;;4995860;28;20287;-55
2022/12/06 01:48:42;;;;;;;4.47;4.07;;;7.40;1.00;;;;;;4999678;28;20543;-52
2022/12/06 01:51:11;;;;;;;6.37;5.07;;;7.40;1.00;;;;;;4994989;28;20444;-55
2022/12/06 01:53:39;;;;;;;5.03;4.53;;;7.40;1.00;;;;;;4989369;28;20982;-55
2022/12/06 01:56:05;;;;;;;6.20;5.57;;;7.40;1.00;;;;;;5003302;28;20445;-54
2022/12/06 01:58:36;;;;;;;7.00;5.70;;;7.40;1.00;;;;;;4995839;28;20542;-54
2022/12/06 02:01:02;;;;;;;6.53;4.73;;;7.40;1.00;;;;;;4998896;28;20451;-53
2022/12/06 02:03:32;;;;;;;5.67;4.97;;;7.40;1.00;;;;;;5007859;28;20550;-54
2022/12/06 02:05:59;;;;;;;6.53;4.77;;;7.40;1.00;;;;;;4993759;28;20506;-52
2022/12/06 02:08:26;;;;;;;5.57;5.07;;;7.40;1.00;;;;;;4990124;28;21008;-52
2022/12/06 02:10:52;;;;;;;6.03;5.40;;;7.50;1.00;;;;;;5002265;28;20464;-53
2022/12/06 02:13:19;;;;;;;5.97;4.67;;;7.40;1.00;;;;;;5000330;28;20444;-51
2022/12/06 02:16:25;;;;;;;5.47;4.70;;;7.30;1.00;;;;;;4999954;28;20443;-53
2022/12/06 02:18:57;;;;;;;5.87;5.20;;;7.40;1.00;;;;;;4998255;28;21002;-54
2022/12/06 02:21:43;;;;;;;7.53;5.80;;;7.30;1.00;;;;;;5001672;28;20505;-54
2022/12/06 02:24:34;;;;;;;7.07;4.97;;;7.40;1.00;;;;;;4992670;28;20527;-53
2022/12/06 02:27:20;;;;;;;8.13;5.53;;;7.30;1.00;;;;;;4995450;28;20457;-52
2022/12/06 02:30:17;;;;;;;8.60;6.17;;;7.30;1.00;;;;;;4995654;28;20447;-53
2022/12/06 02:32:52;;;;;;;8.37;5.60;;;7.40;1.00;;;;;;4975075;28;20479;-54
2022/12/06 02:35:41;;;;;;;8.03;6.40;;;7.40;1.00;;;;;;4991640;28;20533;-52
2022/12/06 02:38:24;;;;;;;8.50;5.67;;;7.30;1.00;;;;;;4995856;28;20448;-51
2022/12/06 02:41:00;;;;;;;5.90;5.30;;;7.30;1.00;;;;;;4997588;28;20463;-53
2022/12/06 02:43:34;;;;;;;6.97;5.33;;;7.20;1.00;;;;;;4998412;28;20496;-52
2022/12/06 02:46:03;;;;;;;7.00;5.70;;;7.40;1.00;;;;;;5001632;28;20730;-53
2022/12/06 02:48:31;;;;;;;7.50;6.13;;;7.30;1.00;;;;;;4991152;28;20578;-53
2022/12/06 02:51:00;;;;;;;9.60;7.10;;;7.40;1.00;;;;;;4998072;28;20512;-54
2022/12/06 02:53:29;;;;;;;9.27;7.43;;;7.40;1.00;;;;;;4993269;28;20457;-53
2022/12/06 02:55:56;;;;;;;9.37;6.70;;;7.20;1.00;;;;;;4996480;28;20456;-55
2022/12/06 02:58:22;;;;;;;9.87;7.13;;;7.30;1.00;;;;;;4998841;28;20423;-56
2022/12/06 03:01:01;;;;;;;9.73;7.03;;;7.20;1.00;;;;;;4995961;28;20459;-52
2022/12/06 03:03:48;;;;;;;9.77;6.40;;;7.10;1.00;;;;;;4993755;28;20309;-51
2022/12/06 03:06:34;;;;;;;7.87;6.50;;;7.10;1.00;;;;;;4997400;28;20535;-54
2022/12/06 03:09:05;;;;;;;8.03;7.23;;;7.20;1.00;;;;;;4999364;28;20458;-53
2022/12/06 03:12:01;;;;;;;9.43;7.47;;;7.10;1.00;;;;;;4976907;28;20543;-54
2022/12/06 03:14:57;;;;;;;7.33;6.53;;;7.30;1.00;;;;;;4998887;28;20827;-54
2022/12/06 03:17:42;;;;;;;10.50;7.10;;;7.30;1.00;;;;;;4967961;28;20439;-52
2022/12/06 03:20:14;;;;;;;11.80;6.70;;;7.20;1.00;;;;;;4995517;28;20436;-52
2022/12/06 03:22:47;;;;;;;9.60;6.10;;;7.20;1.00;;;;;;4993915;28;21034;-53
2022/12/06 03:25:13;;;;;;;8.73;7.27;;;7.30;1.00;;;;;;4995517;28;20434;-54
2022/12/06 03:27:41;;;;;;;9.20;7.67;;;7.30;1.00;;;;;;4987582;28;20471;-55
2022/12/06 03:30:12;;;;;;;9.17;6.93;;;7.30;1.00;;;;;;4996986;28;20508;-54
2022/12/06 03:32:42;;;;;;;11.07;7.17;;;7.20;1.00;;;;;;4993344;28;20452;-53
2022/12/06 03:35:10;;;;;;;11.27;7.13;;;7.30;1.00;;;;;;4996004;28;20733;-52
2022/12/06 03:37:39;;;;;;;10.10;7.83;;;7.30;1.00;;;;;;4993642;28;20818;-54
2022/12/06 03:40:14;;;;;;;9.43;7.23;;;7.40;1.00;;;;;;4994498;28;20448;-53
2022/12/06 03:42:40;;;;;;;8.60;6.60;;;7.30;1.00;;;;;;4997910;28;20532;-52
2022/12/06 03:45:09;;;;;;;7.57;6.60;;;7.30;1.00;;;;;;4990513;28;20547;-53
2022/12/06 03:48:02;;;;;;;8.90;7.20;;;7.40;1.00;;;;;;4995461;28;20309;-52
2022/12/06 03:50:49;;;;;;;8.73;7.30;;;7.30;1.00;;;;;;4991065;28;20483;-53
2022/12/06 03:53:19;;;;;;;11.37;7.60;;;7.20;1.00;;;;;;4991315;28;20427;-53
2022/12/06 03:55:44;;;;;;;9.30;7.20;;;7.20;1.00;;;;;;4998852;28;20550;-53
2022/12/06 03:58:11;;;;;;;12.97;7.23;;;7.20;1.00;;;;;;4992363;28;20491;-55
2022/12/06 04:00:36;;;;;;;7.50;6.67;;;7.10;1.00;;;;;;4996202;28;20661;-52
2022/12/06 04:03:02;;;;;;;8.13;6.83;;;7.10;1.00;;;;;;4999295;28;20475;-53
2022/12/06 04:05:28;;;;;;;7.97;7.17;;;7.10;1.00;;;;;;5003671;28;20192;-54
2022/12/06 04:07:53;;;;;;;8.23;5.93;;;7.10;1.00;;;;;;4992360;28;20189;-51
2022/12/06 04:10:19;;;;;;;11.70;7.33;;;7.20;1.00;;;;;;4999243;28;20224;-52
2022/12/06 04:13:00;;;;;;;10.27;7.53;;;7.20;1.00;;;;;;4995418;28;20655;-54
2022/12/06 04:15:30;;;;;;;11.77;6.70;;;7.10;1.00;;;;;;4993604;28;20203;-54
2022/12/06 04:18:12;;;;;;;9.33;7.17;;;7.10;1.00;;;;;;4994772;28;20459;-56
2022/12/06 04:23:43;;;;;;;7.47;6.43;;;7.00;1.00;;;;;;5000066;28;20561;-52
2022/12/06 04:26:11;;;;;;;12.00;7.80;;;6.90;1.00;;;;;;4996864;28;20537;-53
2022/12/06 04:39:35;;;;;;;7.53;6.43;;;7.00;1.00;;;;;;4999339;28;20491;-51
2022/12/06 04:44:46;;;;;;;8.30;6.77;;;7.10;1.00;;;;;;5001135;28;20609;-52
2022/12/06 04:47:11;;;;;;;9.23;7.17;;;7.10;1.00;;;;;;5003534;28;20471;-51
2022/12/06 04:49:37;;;;;;;9.63;7.30;;;7.10;1.00;;;;;;4998038;28;20428;-53
2022/12/06 04:52:04;;;;;;;9.80;7.00;;;7.00;1.00;;;;;;4996505;28;20200;-52
2022/12/06 04:54:30;;;;;;;9.00;6.53;;;7.10;1.00;;;;;;4991410;28;20546;-54
2022/12/06 04:56:57;;;;;;;8.03;6.80;;;7.10;1.00;;;;;;4977543;28;20541;-51
2022/12/06 04:59:24;;;;;;;7.87;6.43;;;7.10;1.00;;;;;;4986364;28;20442;-52
2022/12/06 05:01:50;;;;;;;9.17;7.17;;;7.10;1.00;;;;;;4999469;28;20776;-54
2022/12/06 05:04:16;;;;;;;7.30;6.37;;;6.90;1.00;;;;;;4997671;28;20880;-51
2022/12/06 05:06:42;;;;;;;7.63;6.60;;;6.90;1.00;;;;;;4992726;28;20434;-53
2022/12/06 05:09:08;;;;;;;7.87;6.00;;;6.90;1.00;;;;;;4994443;28;20192;-52
2022/12/06 05:11:33;;;;;;;6.93;5.73;;;6.90;1.00;;;;;;4989998;28;20215;-54
2022/12/06 05:13:59;;;;;;;7.90;6.20;;;6.90;1.00;;;;;;5000921;28;20945;-53
2022/12/06 05:16:25;;;;;;;7.33;6.10;;;7.00;1.00;;;;;;4992168;28;20219;-53
2022/12/06 05:18:51;;;;;;;8.93;6.67;;;7.00;1.00;;;;;;4999425;28;20572;-54
2022/12/06 05:21:19;;;;;;;6.93;6.10;;;6.90;1.00;;;;;;5006466;28;20455;-56
2022/12/06 05:23:45;;;;;;;7.50;5.50;;;6.90;1.00;;;;;;4995915;28;20296;-54
2022/12/06 05:26:15;;;;;;;6.73;5.70;;;6.90;1.00;;;;;;4997751;28;20607;-53
2022/12/06 05:28:41;;;;;;;8.80;6.87;;;7.00;1.00;;;;;;4996839;28;20456;-53
2022/12/06 05:31:08;;;;;;;7.60;5.77;;;7.00;1.00;;;;;;5001980;28;20447;-52
2022/12/06 05:33:34;;;;;;;6.87;6.17;;;6.90;1.00;;;;;;4998151;28;20544;-54
2022/12/06 05:36:06;;;;;;;7.80;6.13;;;6.80;1.00;;;;;;5000322;28;20545;-55
2022/12/06 05:38:32;;;;;;;9.33;7.07;;;6.80;1.00;;;;;;4996319;28;20966;-52
2022/12/06 05:40:59;;;;;;;9.60;6.53;;;6.80;1.00;;;;;;4998856;28;20550;-53
2022/12/06 05:43:25;;;;;;;8.37;6.57;;;6.90;1.00;;;;;;4993093;28;20698;-52
2022/12/06 05:45:54;;;;;;;8.60;5.83;;;6.90;1.00;;;;;;4998794;28;20553;-55
2022/12/06 05:48:20;;;;;;;9.10;7.13;;;6.90;1.00;;;;;;4989000;28;20557;-53
2022/12/06 05:50:46;;;;;;;8.53;6.70;;;6.80;1.00;;;;;;4998821;28;20452;-52
2022/12/06 05:53:12;;;;;;;7.43;6.57;;;6.70;1.00;;;;;;4991573;28;20226;-51
2022/12/06 05:55:38;;;;;;;8.73;7.40;;;6.70;1.00;;;;;;4993640;28;20977;-55
2022/12/06 05:58:04;;;;;;;8.60;6.90;;;6.70;1.00;;;;;;5005856;28;20279;-53
2022/12/06 06:00:29;;;;;;;10.80;8.03;;;6.70;1.00;;;;;;4992017;28;20748;-54
2022/12/06 06:02:55;;;;;;;7.87;6.20;;;6.70;1.00;;;;;;4992049;28;20456;-54
2022/12/06 06:05:20;;;;;;;9.83;7.37;;;6.80;1.00;;;;;;5001048;28;20622;-53
2022/12/06 06:07:46;;;;;;;9.20;7.03;;;6.80;1.00;;;;;;4995558;28;20198;-54
2022/12/06 06:10:12;;;;;;;8.47;6.93;;;6.70;1.00;;;;;;4993545;28;20284;-51
2022/12/06 06:12:39;;;;;;;7.90;6.83;;;6.80;1.00;;;;;;4996326;28;20185;-54
2022/12/06 06:15:06;;;;;;;12.20;8.07;;;6.90;1.00;;;;;;4998035;28;21894;-52
2022/12/06 06:17:33;;;;;;;9.80;6.57;;;7.00;1.00;;;;;;4998919;28;20507;-54
2022/12/06 06:20:01;;;;;;;11.33;7.43;;;7.00;1.00;;;;;;4999676;28;20957;-54
2022/12/06 06:22:27;;;;;;;8.93;7.77;;;6.80;1.00;;;;;;5003381;28;20570;-55
2022/12/06 06:24:53;;;;;;;12.80;8.77;;;7.00;1.00;;;;;;5001442;28;21013;-54
2022/12/06 06:27:18;;;;;;;11.57;7.90;;;7.00;1.00;;;;;;4999647;28;20693;-52
2022/12/06 06:29:44;;;;;;;11.30;8.23;;;7.00;1.00;;;;;;4989233;28;20185;-54
2022/12/06 06:32:11;;;;;;;8.77;7.10;;;7.00;1.00;;;;;;4997120;28;20200;-52
2022/12/06 06:34:36;;;;;;;14.60;9.90;;;7.00;1.00;;;;;;4963644;28;20197;-53
2022/12/06 06:37:02;;;;;;;11.20;9.13;;;6.90;1.00;;;;;;4997457;28;20452;-52
2022/12/06 06:39:28;;;;;;;13.30;9.40;;;6.90;1.00;;;;;;5002565;28;20232;-52
2022/12/06 06:41:53;;;;;;;10.70;8.70;;;7.00;1.00;;;;;;5003067;28;20189;-53
2022/12/06 06:44:19;;;;;;;9.30;8.00;;;7.10;1.00;;;;;;4996798;28;20567;-54
2022/12/06 06:46:44;;;;;;;9.43;8.40;;;7.20;1.00;;;;;;5004727;28;20332;-53
2022/12/06 06:49:11;;;;;;;10.63;8.33;;;7.10;1.00;;;;;;4999309;28;20233;-51
2022/12/06 06:51:36;;;;;;;8.70;7.20;;;7.00;1.00;;;;;;5000317;28;20185;-52
2022/12/06 06:54:02;;;;;;;13.00;8.53;;;6.80;1.00;;;;;;4993426;28;21053;-54
2022/12/06 06:56:28;;;;;;;9.70;8.40;;;6.90;1.00;;;;;;4991950;28;20535;-54
2022/12/06 06:58:53;;;;;;;11.80;9.40;;;6.80;1.00;;;;;;4996660;28;20451;-51
2022/12/06 07:01:22;;;;;;;9.77;7.73;;;6.70;1.00;;;;;;4998299;28;20193;-53
2022/12/06 07:03:50;;;;;;;8.77;7.67;;;6.70;1.00;;;;;;4997488;28;20239;-54
2022/12/06 07:06:16;;;;;;;11.70;8.83;;;6.70;1.00;;;;;;4996698;28;21106;-54
2022/12/06 07:08:42;;;;;;;9.90;7.63;;;6.80;1.00;;;;;;4994396;28;20444;-53
2022/12/06 07:11:09;;;;;;;10.13;7.60;;;6.90;1.00;;;;;;4996780;28;20420;-54
2022/12/06 07:13:36;;;;;;;11.57;8.90;;;6.80;1.00;;;;;;4997325;28;20227;-54
2022/12/06 07:16:04;;;;;;;10.23;7.77;;;6.80;1.00;;;;;;4993687;28;20459;-53
2022/12/06 07:18:29;;;;;;;11.03;7.97;;;6.80;1.00;;;;;;5006343;28;20767;-53
2022/12/06 07:21:03;;;;;;;13.47;8.27;;;6.80;1.00;;;;;;5001598;28;20447;-55
2022/12/06 07:23:31;;;;;;;12.63;8.73;;;6.80;1.00;;;;;;4997232;28;20220;-53
2022/12/06 07:26:10;;;;;;;10.20;8.90;;;6.90;1.00;;;;;;4994921;28;20504;-51
2022/12/06 07:28:37;;;;;;;11.87;8.97;;;6.90;1.00;;;;;;4998635;28;20559;-54
2022/12/06 07:31:21;;;;;;;11.70;8.13;;;7.00;1.00;;;;;;5000270;28;20530;-51
2022/12/06 07:33:50;;;;;;;10.53;8.30;;;7.00;1.00;;;;;;4989129;28;20463;-54
2022/12/06 07:36:16;;;;;;;9.87;7.90;;;7.00;1.00;;;;;;5002185;28;20499;-52
2022/12/06 07:38:45;;;;;;;10.00;8.30;;;7.00;1.00;;;;;;4997079;28;20623;-53
2022/12/06 07:46:42;;;;;;;11.47;9.20;;;7.10;1.00;;;;;;4998760;28;20937;-54
2022/12/06 07:49:08;;;;;;;16.20;8.90;;;7.10;1.00;;;;;;4994199;28;20444;-55
2022/12/06 07:51:34;;;;;;;12.50;8.90;;;7.10;1.00;;;;;;4997856;28;20326;-55
2022/12/06 07:54:00;;;;;;;13.67;10.17;;;6.80;1.00;;;;;;5001812;28;20948;-52
2022/12/06 07:56:25;;;;;;;10.63;8.70;;;6.70;1.00;;;;;;5003503;28;20735;-53
2022/12/06 07:58:51;;;;;;;15.17;10.10;;;6.70;1.00;;;;;;4998913;28;20476;-55
2022/12/06 08:01:17;;;;;;;11.97;8.93;;;6.60;1.00;;;;;;4998577;28;20204;-53
2022/12/06 08:03:43;;;;;;;10.13;9.07;;;6.70;1.00;;;;;;5000525;28;20453;-53
2022/12/06 08:06:09;;;;;;;13.30;9.37;;;6.80;1.00;;;;;;4994139;28;20457;-54
2022/12/06 08:08:36;;;;;;;12.57;10.43;;;6.80;1.00;;;;;;4999852;28;20193;-54
2022/12/06 08:11:04;;;;;;;12.80;9.00;;;6.80;1.00;;;;;;4997763;28;20212;-53
2022/12/06 08:13:30;;;;;;;11.67;9.03;;;6.80;1.00;;;;;;4984206;28;20475;-52
2022/12/06 08:15:56;;;;;;;14.80;8.97;;;6.80;1.00;;;;;;4992055;28;20454;-54
2022/12/06 08:18:22;;;;;;;14.53;9.80;;;6.70;1.00;;;;;;5001429;28;20444;-53
2022/12/06 08:20:47;;;;;;;13.13;10.83;;;6.80;1.00;;;;;;4999346;28;20193;-55
2022/12/06 08:23:13;;;;;;;12.70;8.60;;;6.80;1.00;;;;;;4991860;28;20220;-55
2022/12/06 08:25:39;;;;;;;15.93;10.17;;;6.60;1.00;;;;;;4991818;28;20200;-53
2022/12/06 08:28:04;;;;;;;11.80;9.17;;;6.70;1.00;;;;;;4986545;28;20197;-53
2022/12/06 08:30:30;;;;;;;11.57;8.67;;;6.60;1.00;;;;;;4990546;28;20207;-51
2022/12/06 08:32:56;;;;;;;12.20;9.77;;;6.60;1.00;;;;;;4997559;28;20199;-53
2022/12/06 08:35:22;;;;;;;12.00;9.40;;;6.60;1.00;;;;;;4995064;28;20448;-53
2022/12/06 08:37:47;;;;;;;10.90;8.53;;;6.70;1.00;;;;;;5004846;28;20613;-53
2022/12/06 08:40:13;;;;;;;12.77;9.60;;;6.80;1.00;;;;;;4998192;28;20201;-52
2022/12/06 08:42:40;;;;;;;11.93;9.27;;;6.80;1.00;;;;;;4988647;28;20822;-52
2022/12/06 08:45:07;;;;;;;10.73;8.43;;;6.80;1.00;;;;;;4999949;28;20193;-53
2022/12/06 08:47:32;;;;;;;12.50;10.00;;;6.90;1.00;;;;;;4999884;28;20475;-54
2022/12/06 08:49:58;;;;;;;11.90;8.70;;;6.90;1.00;;;;;;4996490;28;20458;-56
2022/12/06 08:52:24;;;;;;;11.73;8.03;;;6.80;1.00;;;;;;4997965;28;20279;-55
2022/12/06 08:54:50;;;;;;;12.40;9.67;;;6.70;1.00;;;;;;4990560;28;20232;-54
2022/12/06 08:57:16;;;;;;;18.87;9.87;;;6.80;1.00;;;;;;4972521;28;20205;-51
2022/12/06 08:59:41;;;;;;;12.77;9.40;;;6.80;1.00;;;;;;4996026;28;20540;-53
2022/12/06 09:02:10;;;;;;;12.20;8.90;;;7.00;1.00;;;;;;4996237;28;20498;-53
2022/12/06 09:04:35;;;;;;;11.40;9.50;;;7.10;1.00;;;;;;5002347;28;20197;-52
2022/12/06 09:07:01;;;;;;;11.10;9.57;;;7.00;1.00;;;;;;5001194;28;20498;-55
2022/12/06 09:09:27;;;;;;;11.43;8.20;;;7.00;1.00;;;;;;5001638;28;20798;-55
2022/12/06 09:11:53;;;;;;;10.30;8.70;;;7.00;1.00;;;;;;5001074;28;20180;-55
2022/12/06 09:14:19;;;;;;;10.47;8.67;;;6.90;1.00;;;;;;4983044;28;20194;-53
2022/12/06 09:16:44;;;;;;;10.43;8.93;;;6.90;1.00;;;;;;4999753;28;20196;-54
2022/12/06 09:19:11;;;;;;;12.20;8.70;;;6.90;1.00;;;;;;4998166;28;20449;-52
2022/12/06 09:21:39;;;;;;;14.60;9.00;;;7.00;1.00;;;;;;5005722;28;20682;-53
2022/12/06 09:24:05;;;;;;;10.80;9.60;;;7.10;1.00;;;;;;5005129;28;20474;-51
2022/12/06 09:26:31;;;;;;;13.80;9.77;;;7.10;1.00;;;;;;4996016;28;20448;-51
2022/12/06 09:28:57;;;;;;;8.67;7.77;;;7.20;1.00;;;;;;5000383;28;20457;-55
2022/12/06 09:31:24;;;;;;;11.00;8.60;;;7.10;1.00;;;;;;4998507;28;20958;-54
2022/12/06 09:33:51;;;;;;;12.50;9.50;;;7.10;1.00;;;;;;5003230;28;20494;-53
2022/12/06 09:36:27;;;;;;;12.60;9.87;;;7.20;1.00;;;;;;5001802;28;20439;-54
2022/12/06 09:39:19;;;;;;;11.83;9.20;;;7.20;1.00;;;;;;5002398;28;20500;-55
2022/12/06 09:42:06;;;;;;;13.73;9.23;;;7.20;1.00;;;;;;4993653;28;20457;-55
2022/12/06 09:44:45;;;;;;;10.43;9.37;;;7.20;1.00;;;;;;4995348;28;20849;-54
2022/12/06 09:47:16;;;;;;;14.13;10.20;;;7.30;1.00;;;;;;5009596;28;20798;-54
2022/12/06 09:49:58;;;;;;;9.90;8.33;;;7.30;1.00;;;;;;5002135;28;20824;-53
2022/12/06 09:52:36;;;;;;;10.57;9.40;;;7.40;1.00;;;;;;4999212;28;20437;-52
2022/12/06 09:55:30;;;;;;;10.90;8.50;;;7.40;1.00;;;;;;4996855;28;20431;-53
2022/12/06 09:57:56;;;;;;;11.30;8.30;;;7.30;1.00;;;;;;5000816;28;20456;-53
2022/12/06 10:00:22;;;;;;;12.07;9.07;;;7.40;1.00;;;;;;5003504;28;20420;-53
2022/12/06 10:03:06;;;;;;;9.13;8.17;;;7.30;1.00;;;;;;5001750;28;20203;-55
2022/12/06 10:05:51;;;;;;;10.70;8.67;;;7.20;1.00;;;;;;5010414;28;20926;-52
2022/12/06 10:09:13;;;;;;;9.57;7.97;;;7.20;1.00;;;;;;4999844;28;20471;-54
2022/12/06 10:11:42;;;;;;;9.37;7.87;;;6.70;1.00;;;;;;4907129;29;20532;-53
2022/12/06 10:14:19;;;;;;;13.17;9.00;;;7.00;1.00;;;;;;4913384;29;20422;-55
2022/12/06 10:17:12;;;;;;;8.80;7.90;;;7.00;1.00;;;;;;4971065;28;20454;-52
2022/12/06 10:20:03;;;;;;;10.50;8.07;;;7.00;1.00;;;;;;5000471;28;20451;-53
2022/12/06 10:23:02;;;;;;;11.00;8.47;;;7.00;1.00;;;;;;5005395;28;20464;-55
2022/12/06 10:25:50;;;;;;;9.60;7.70;;;6.90;1.00;;;;;;5007658;28;20510;-54
2022/12/06 10:28:24;;;;;;;9.57;8.33;;;6.80;1.00;;;;;;4998437;28;20453;-55
2022/12/06 10:30:54;;;;;;;8.90;7.37;;;6.80;1.00;;;;;;5009290;28;20443;-53
2022/12/06 10:33:56;;;;;;;8.50;7.47;;;6.80;1.00;;;;;;5002768;28;20451;-55
2022/12/06 10:36:43;;;;;;;9.70;7.00;;;6.70;1.00;;;;;;5001267;28;20435;-52
2022/12/06 10:39:27;;;;;;;9.73;8.20;;;6.80;1.00;;;;;;5006519;28;21835;-53
2022/12/06 10:42:23;;;;;;;11.60;8.93;;;6.70;1.00;;;;;;5004994;28;20437;-51
2022/12/06 10:47:02;;;;;;;11.87;9.70;;;6.70;1.00;;;;;;4985528;28;20535;-54
2022/12/06 10:47:54;;;;;;;18.00;12.23;;;6.60;1.00;;;;;;4994171;28;20468;-55
2022/12/06 10:50:27;;;;;;;12.17;9.90;;;6.70;1.00;;;;;;5006239;28;20611;-52
2022/12/06 10:52:59;;;;;;;9.57;8.57;;;6.60;1.00;;;;;;5001397;28;20492;-56
2022/12/06 10:55:48;;;;;;;11.93;8.10;;;6.50;1.00;;;;;;5006817;28;20541;-53
2022/12/06 10:58:35;;;;;;;11.03;8.97;;;6.60;1.00;;;;;;5004189;28;20912;-54
2022/12/06 11:01:14;;;;;;;10.47;8.20;;;6.60;1.00;;;;;;4994653;28;20436;-54
2022/12/06 11:03:55;;;;;;;9.37;8.00;;;6.70;1.00;;;;;;4992774;28;20597;-54
2022/12/06 11:06:46;;;;;;;9.80;8.27;;;6.70;1.00;;;;;;4999786;28;20495;-56
2022/12/06 11:09:29;;;;;;;10.80;8.73;;;6.80;1.00;;;;;;5000484;28;20451;-51
2022/12/06 11:11:55;;;;;;;11.50;8.60;;;6.80;1.00;;;;;;5000475;28;20482;-56
2022/12/06 11:14:42;;;;;;;9.83;8.80;;;6.90;1.00;;;;;;5002339;28;20447;-53
2022/12/06 11:17:14;;;;;;;10.93;8.70;;;6.80;1.00;;;;;;4998746;28;20529;-52
2022/12/06 11:19:51;;;;;;;11.40;9.17;;;6.90;1.00;;;;;;5002654;28;20912;-52
2022/12/06 11:22:35;;;;;;;9.20;7.90;;;7.00;1.00;;;;;;5004400;28;21060;-53
2022/12/06 11:25:28;;;;;;;9.50;7.90;;;6.80;1.00;;;;;;4995724;28;20435;-52
2022/12/06 11:28:22;;;;;;;8.60;7.70;;;6.60;1.00;;;;;;5004369;28;20438;-55
2022/12/06 11:30:53;;;;;;;9.90;8.50;;;6.50;1.00;;;;;;5004975;28;20436;-52
2022/12/06 11:33:24;;;;;;;10.50;8.30;;;6.50;1.00;;;;;;5001231;28;20446;-54
2022/12/06 11:35:50;;;;;;;9.67;7.63;;;6.40;1.00;;;;;;4996526;28;20433;-54
2022/12/06 11:38:16;;;;;;;11.13;8.23;;;6.50;1.00;;;;;;5008545;28;20436;-54
2022/12/06 11:40:45;;;;;;;10.53;8.47;;;6.40;1.00;;;;;;5000072;28;20264;-56
2022/12/06 11:43:19;;;;;;;10.70;8.50;;;6.40;1.00;;;;;;4996128;28;20474;-53
2022/12/06 11:45:48;;;;;;;11.73;9.37;;;6.50;1.00;;;;;;4997063;28;20436;-54
2022/12/06 11:48:21;;;;;;;12.60;9.03;;;6.50;1.00;;;;;;5002084;28;20815;-54
2022/12/06 11:50:48;;;;;;;10.60;8.50;;;6.60;1.00;;;;;;5005639;28;20519;-55
2022/12/06 11:53:29;;;;;;;10.53;8.00;;;6.70;1.00;;;;;;4998978;28;20441;-52
2022/12/06 11:55:59;;;;;;;12.90;9.07;;;6.60;1.00;;;;;;5002732;28;20442;-53
2022/12/06 11:58:33;;;;;;;16.27;11.17;;;6.60;1.00;;;;;;5001165;28;20489;-54
2022/12/06 12:01:03;;;;;;;13.67;10.37;;;6.50;1.00;;;;;;4995841;28;20534;-53
2022/12/06 12:03:34;;;;;;;13.37;9.40;;;6.60;1.00;;;;;;4995818;28;20476;-53
2022/12/06 12:06:21;;;;;;;11.67;7.87;;;6.50;1.00;;;;;;5004043;28;20870;-51
2022/12/06 12:09:15;;;;;;;11.17;9.13;;;6.40;1.00;;;;;;5002466;28;20422;-56
2022/12/06 12:11:41;;;;;;;9.80;8.87;;;6.30;1.00;;;;;;4998916;28;20414;-53
2022/12/06 12:14:17;;;;;;;12.80;9.40;;;6.20;1.00;;;;;;4995788;28;20443;-52
2022/12/06 12:16:47;;;;;;;9.80;8.60;;;6.10;1.00;;;;;;5000255;28;20456;-53
2022/12/06 12:19:37;;;;;;;12.43;8.70;;;6.20;1.00;;;;;;4996618;28;20774;-55
2022/12/06 12:22:26;;;;;;;10.73;8.13;;;6.30;1.00;;;;;;4998417;28;20409;-52
2022/12/06 12:24:56;;;;;;;11.13;9.00;;;6.80;1.00;;;;;;5005024;28;20504;-54
2022/12/06 12:27:43;;;;;;;12.77;10.00;;;6.40;1.00;;;;;;5003948;28;20432;-52
2022/12/06 12:30:27;;;;;;;15.67;10.70;;;6.50;1.00;;;;;;5008915;28;20432;-52
2022/12/06 12:33:05;;;;;;;12.80;9.70;;;6.60;1.00;;;;;;4998749;28;20447;-52
2022/12/06 12:35:36;;;;;;;11.10;8.87;;;6.60;1.00;;;;;;4998119;28;20439;-54
2022/12/06 12:38:10;;;;;;;11.63;9.07;;;6.70;1.00;;;;;;5002163;28;20438;-52
2022/12/06 12:40:45;;;;;;;12.50;9.83;;;6.40;1.00;;;;;;5003653;28;20484;-54
2022/12/06 12:43:11;;;;;;;12.80;10.10;;;6.60;1.00;;;;;;4999433;28;20587;-53
2022/12/06 12:45:57;;;;;;;11.60;9.63;;;6.50;1.00;;;;;;4999380;28;20801;-55
2022/12/06 12:48:25;;;;;;;11.37;8.40;;;6.50;1.00;;;;;;4998353;28;20564;-53
2022/12/06 12:50:57;;;;;;;8.93;7.60;;;6.40;1.00;;;;;;5013058;28;20432;-52
2022/12/06 12:53:31;;;;;;;9.53;7.67;;;6.40;1.00;;;;;;5000324;28;20463;-54
2022/12/06 12:56:15;;;;;;;12.03;9.70;;;6.40;1.00;;;;;;5003158;28;20525;-55
2022/12/06 12:58:41;;;;;;;8.37;7.47;;;6.30;1.00;;;;;;5002039;28;20440;-52
2022/12/06 13:01:23;;;;;;;9.97;8.43;;;6.20;1.00;;;;;;5004699;28;20832;-54
2022/12/06 13:03:58;;;;;;;9.30;7.60;;;6.10;1.00;;;;;;5010818;28;20436;-52
2022/12/06 13:06:30;;;;;;;9.43;7.00;;;6.00;1.00;;;;;;4996014;28;20434;-53
2022/12/06 13:08:59;;;;;;;9.30;8.33;;;6.10;1.00;;;;;;5003108;28;20436;-53
2022/12/06 13:11:27;;;;;;;11.27;8.97;;;6.10;1.00;;;;;;5007035;28;21001;-54
2022/12/06 13:13:54;;;;;;;9.93;8.00;;;6.20;1.00;;;;;;5000169;28;20540;-55
2022/12/06 13:16:27;;;;;;;9.93;8.20;;;6.10;1.00;;;;;;5002106;28;21377;-56
2022/12/06 13:18:56;;;;;;;9.60;8.60;;;6.10;1.00;;;;;;5000018;28;20444;-51
2022/12/06 13:21:38;;;;;;;9.33;7.00;;;6.10;1.00;;;;;;4998665;28;20440;-52
2022/12/06 13:24:09;;;;;;;10.70;7.77;;;6.10;1.00;;;;;;5002879;28;20491;-52
2022/12/06 13:26:44;;;;;;;10.33;7.93;;;6.10;1.00;;;;;;5005188;28;20493;-53
2022/12/06 13:30:01;;;;;;;11.23;8.60;;;6.10;1.00;;;;;;4978155;28;20429;-53
2022/12/06 13:32:54;;;;;;;12.43;9.23;;;6.10;1.00;;;;;;4952222;28;20531;-56
2022/12/06 13:35:33;;;;;;;12.97;9.03;;;6.10;1.00;;;;;;4977565;28;20509;-54
2022/12/06 13:38:01;;;;;;;13.70;9.90;;;6.10;1.00;;;;;;5003504;28;20470;-53
2022/12/06 13:40:47;;;;;;;11.73;9.67;;;6.00;1.00;;;;;;5004046;28;21070;-53
2022/12/06 13:43:24;;;;;;;14.37;9.60;;;6.10;1.00;;;;;;4993112;28;21471;-52
2022/12/06 13:45:54;;;;;;;12.60;9.83;;;6.00;1.00;;;;;;4984165;28;20439;-53
2022/12/06 13:48:25;;;;;;;13.50;9.77;;;6.10;1.00;;;;;;4998973;28;20969;-54